Time;durP1;ratioP1;P1;durP2;ratioP2;P2;SDS_P1;SDS_P2;PMS_P1;PMS_P2;Temp;Humidity;BMP_temperature;BMP_pressure;BME280_temperature;BME280_humidity;BME280_pressure;Samples;Min_cycle;Max_cycle;Signal;HPM_P1;HPM_P2
2022/10/07 00:00:18;;;;;;;9.73;2.22;;;;;;;;;;5028956;28;20699;-69
2022/10/07 00:02:43;;;;;;;16.67;3.00;;;;;;;;;;5026836;28;20071;-69
2022/10/07 00:05:08;;;;;;;9.00;2.90;;;;;;;;;;5028996;28;20087;-67
2022/10/07 00:07:33;;;;;;;11.57;2.95;;;;;;;;;;5025520;28;20359;-69
2022/10/07 00:09:59;;;;;;;10.73;3.25;;;;;;;;;;5027745;28;20383;-69
2022/10/07 00:12:24;;;;;;;15.75;2.97;;;;;;;;;;5026684;28;20082;-69
2022/10/07 00:14:50;;;;;;;10.52;2.78;;;;;;;;;;5028333;28;20052;-69
2022/10/07 00:17:15;;;;;;;12.77;2.97;;;;;;;;;;5027115;28;20022;-67
2022/10/07 00:19:40;;;;;;;11.15;2.63;;;;;;;;;;5027520;28;20784;-69
2022/10/07 00:22:05;;;;;;;10.57;2.80;;;;;;;;;;5025695;28;20029;-67
2022/10/07 00:24:30;;;;;;;8.53;3.20;;;;;;;;;;5024759;28;20640;-69
2022/10/07 00:26:55;;;;;;;24.93;3.40;;;;;;;;;;5025048;28;20272;-68
2022/10/07 00:29:20;;;;;;;13.87;3.13;;;;;;;;;;5026974;28;20788;-69
2022/10/07 00:31:46;;;;;;;11.10;4.00;;;;;;;;;;5023786;28;20274;-68
2022/10/07 00:34:11;;;;;;;11.77;3.05;;;;;;;;;;5027824;28;20021;-69
2022/10/07 00:36:36;;;;;;;12.70;3.30;;;;;;;;;;5028716;28;20072;-68
2022/10/07 00:39:05;;;;;;;19.25;2.72;;;;;;;;;;5030189;28;20116;-67
2022/10/07 00:41:39;;;;;;;11.48;3.05;;;;;;;;;;5033179;28;20021;-69
2022/10/07 00:44:23;;;;;;;9.43;2.80;;;;;;;;;;5026655;28;20481;-68
2022/10/07 00:46:49;;;;;;;14.45;2.95;;;;;;;;;;5023950;28;20440;-67
2022/10/07 00:49:14;;;;;;;13.80;2.80;;;;;;;;;;5025242;28;20036;-68
2022/10/07 00:51:41;;;;;;;10.75;2.55;;;;;;;;;;5027520;28;20037;-66
2022/10/07 00:54:09;;;;;;;9.63;2.65;;;;;;;;;;5027728;28;20064;-69
2022/10/07 00:56:35;;;;;;;17.20;3.50;;;;;;;;;;5026410;28;20108;-69
2022/10/07 00:59:00;;;;;;;11.38;2.67;;;;;;;;;;5024222;28;20116;-68
2022/10/07 01:01:26;;;;;;;14.60;2.78;;;;;;;;;;5028640;28;20089;-69
2022/10/07 01:03:51;;;;;;;10.15;2.67;;;;;;;;;;5025247;28;20544;-68
2022/10/07 01:06:16;;;;;;;13.85;3.25;;;;;;;;;;5027071;28;20036;-69
2022/10/07 01:08:44;;;;;;;10.18;3.83;;;;;;;;;;5025282;28;20028;-67
2022/10/07 01:11:15;;;;;;;11.82;3.65;;;;;;;;;;5028133;28;20045;-68
2022/10/07 01:13:46;;;;;;;11.93;2.75;;;;;;;;;;5024608;28;20033;-69
2022/10/07 01:16:20;;;;;;;11.43;3.45;;;;;;;;;;5025532;28;20022;-69
2022/10/07 01:19:03;;;;;;;8.07;2.75;;;;;;;;;;5025970;28;20106;-68
2022/10/07 01:21:38;;;;;;;9.98;2.47;;;;;;;;;;5033489;28;20070;-69
2022/10/07 01:24:09;;;;;;;12.57;3.03;;;;;;;;;;5030444;28;20412;-69
2022/10/07 01:26:34;;;;;;;12.77;2.78;;;;;;;;;;5031677;28;20029;-68
2022/10/07 01:29:04;;;;;;;20.88;2.90;;;;;;;;;;5031996;28;20041;-67
2022/10/07 01:31:29;;;;;;;;;;;;;;;;;;5031518;28;20060;-68
2022/10/07 01:33:55;;;;;;;6.80;2.50;;;;;;;;;;5031003;28;19921;-68
2022/10/07 01:36:22;;;;;;;11.13;2.53;;;;;;;;;;5030423;28;20109;-68
2022/10/07 01:38:50;;;;;;;16.23;3.05;;;;;;;;;;5029638;28;20025;-69
2022/10/07 01:41:16;;;;;;;6.40;2.53;;;;;;;;;;5032284;28;20382;-69
2022/10/07 01:43:43;;;;;;;9.77;2.45;;;;;;;;;;5029634;28;20132;-68
2022/10/07 01:46:11;;;;;;;7.03;2.00;;;;;;;;;;5031755;28;20742;-68
2022/10/07 01:48:36;;;;;;;9.25;2.58;;;;;;;;;;5032835;28;20026;-67
2022/10/07 01:51:02;;;;;;;15.13;2.80;;;;;;;;;;5033071;28;20075;-68
2022/10/07 01:53:36;;;;;;;8.90;2.75;;;;;;;;;;5029651;28;20031;-68
2022/10/07 01:56:23;;;;;;;8.30;2.05;;;;;;;;;;5032616;28;20022;-68
2022/10/07 01:59:07;;;;;;;7.35;2.42;;;;;;;;;;5020995;28;20124;-68
2022/10/07 02:01:47;;;;;;;9.48;2.95;;;;;;;;;;5031680;28;20021;-68
2022/10/07 02:04:12;;;;;;;10.75;2.50;;;;;;;;;;5030491;28;20025;-68
2022/10/07 02:06:49;;;;;;;11.95;2.85;;;;;;;;;;5032465;28;20025;-68
2022/10/07 02:09:21;;;;;;;13.00;4.28;;;;;;;;;;5031492;28;20097;-69
2022/10/07 02:11:50;;;;;;;11.13;2.22;;;;;;;;;;5030672;28;20116;-68
2022/10/07 02:14:23;;;;;;;13.93;3.17;;;;;;;;;;5029385;28;20028;-67
2022/10/07 02:16:59;;;;;;;12.65;2.90;;;;;;;;;;5032525;28;20083;-66
2022/10/07 02:19:33;;;;;;;13.18;3.15;;;;;;;;;;5030603;28;20084;-66
2022/10/07 02:22:00;;;;;;;13.70;2.88;;;;;;;;;;5031241;28;20108;-67
2022/10/07 02:24:27;;;;;;;9.98;3.08;;;;;;;;;;5031970;28;20025;-66
2022/10/07 02:26:53;;;;;;;13.85;3.13;;;;;;;;;;5029563;28;20029;-68
2022/10/07 02:29:19;;;;;;;5.85;2.53;;;;;;;;;;5031440;28;20405;-67
2022/10/07 02:31:45;;;;;;;10.05;3.03;;;;;;;;;;5027912;28;20052;-66
2022/10/07 02:34:12;;;;;;;17.58;3.33;;;;;;;;;;5028723;28;20021;-67
2022/10/07 02:36:39;;;;;;;13.02;4.53;;;;;;;;;;5028336;28;20022;-66
2022/10/07 02:39:05;;;;;;;11.02;2.97;;;;;;;;;;5031617;28;20021;-66
2022/10/07 02:41:30;;;;;;;9.88;2.50;;;;;;;;;;5030839;28;20104;-67
2022/10/07 02:44:18;;;;;;;10.55;3.35;;;;;;;;;;5029489;28;20021;-67
2022/10/07 02:46:50;;;;;;;7.57;2.25;;;;;;;;;;5029016;28;20276;-67
2022/10/07 02:49:17;;;;;;;9.63;2.60;;;;;;;;;;5031698;28;20112;-67
2022/10/07 02:51:45;;;;;;;7.95;2.63;;;;;;;;;;5034447;28;20028;-66
2022/10/07 02:54:11;;;;;;;28.17;8.57;;;;;;;;;;5033924;28;20021;-66
2022/10/07 02:56:38;;;;;;;28.40;5.05;;;;;;;;;;5029475;28;20025;-67
2022/10/07 02:59:05;;;;;;;11.98;3.72;;;;;;;;;;5030288;28;20044;-66
2022/10/07 03:01:33;;;;;;;14.75;2.97;;;;;;;;;;5029995;28;20477;-67
2022/10/07 03:03:58;;;;;;;8.10;2.85;;;;;;;;;;5030966;28;20091;-67
2022/10/07 03:06:23;;;;;;;27.40;3.95;;;;;;;;;;5028485;28;20052;-67
2022/10/07 03:08:49;;;;;;;19.98;4.20;;;;;;;;;;5032116;28;20027;-67
2022/10/07 03:11:15;;;;;;;10.30;4.35;;;;;;;;;;5029146;28;20099;-68
2022/10/07 03:13:40;;;;;;;22.08;5.65;;;;;;;;;;5031054;28;20037;-68
2022/10/07 03:16:05;;;;;;;12.23;4.93;;;;;;;;;;5027734;28;20026;-67
2022/10/07 03:18:31;;;;;;;7.03;3.22;;;;;;;;;;5029294;28;20017;-68
2022/10/07 03:20:58;;;;;;;15.82;3.90;;;;;;;;;;5031847;28;20014;-68
2022/10/07 03:23:23;;;;;;;12.05;3.30;;;;;;;;;;5026625;28;20045;-68
2022/10/07 03:25:52;;;;;;;18.02;3.00;;;;;;;;;;5027428;28;20453;-68
2022/10/07 03:28:21;;;;;;;9.77;3.10;;;;;;;;;;5028544;28;20404;-68
2022/10/07 03:30:47;;;;;;;14.05;2.90;;;;;;;;;;5028849;28;20513;-68
2022/10/07 03:33:13;;;;;;;12.48;2.80;;;;;;;;;;5030906;28;20087;-68
2022/10/07 03:35:38;;;;;;;11.80;2.65;;;;;;;;;;5030557;28;20397;-67
2022/10/07 03:38:07;;;;;;;14.02;3.42;;;;;;;;;;5030833;28;20026;-68
2022/10/07 03:40:32;;;;;;;9.68;2.55;;;;;;;;;;5035048;28;20092;-68
2022/10/07 03:42:57;;;;;;;7.28;2.00;;;;;;;;;;5027291;28;20033;-68
2022/10/07 03:45:22;;;;;;;7.83;1.97;;;;;;;;;;5027499;28;20021;-68
2022/10/07 03:47:47;;;;;;;15.02;2.33;;;;;;;;;;5032230;28;20294;-68
2022/10/07 03:50:13;;;;;;;7.67;2.37;;;;;;;;;;5030677;28;20030;-68
2022/10/07 03:52:38;;;;;;;7.63;2.23;;;;;;;;;;5028858;28;20356;-68
2022/10/07 03:55:03;;;;;;;7.05;2.50;;;;;;;;;;5034087;28;20288;-66
2022/10/07 04:00:12;;;;;;;9.43;2.35;;;;;;;;;;5022984;28;20036;-68
2022/10/07 04:02:37;;;;;;;13.27;2.30;;;;;;;;;;5026792;28;20030;-68
2022/10/07 04:05:02;;;;;;;13.70;2.63;;;;;;;;;;5029989;28;20037;-68
2022/10/07 04:07:27;;;;;;;9.77;2.75;;;;;;;;;;5029285;28;20398;-68
2022/10/07 04:09:53;;;;;;;10.13;2.43;;;;;;;;;;5030544;28;20130;-68
2022/10/07 04:12:18;;;;;;;16.70;2.87;;;;;;;;;;5028943;28;20264;-68
2022/10/07 04:14:43;;;;;;;5.83;2.67;;;;;;;;;;5028942;28;20434;-69
2022/10/07 04:17:09;;;;;;;8.57;2.53;;;;;;;;;;5024390;28;20276;-69
2022/10/07 04:19:34;;;;;;;13.80;3.00;;;;;;;;;;5030425;28;20017;-68
2022/10/07 04:21:59;;;;;;;10.18;2.35;;;;;;;;;;5029448;28;20032;-68
2022/10/07 04:24:24;;;;;;;17.88;3.03;;;;;;;;;;5030298;28;20083;-68
2022/10/07 04:26:49;;;;;;;7.95;2.45;;;;;;;;;;5028028;28;20025;-67
2022/10/07 04:29:15;;;;;;;8.60;2.50;;;;;;;;;;5029403;28;20486;-68
2022/10/07 04:31:40;;;;;;;7.93;2.80;;;;;;;;;;5028279;28;20267;-68
2022/10/07 04:34:05;;;;;;;7.20;2.20;;;;;;;;;;5028907;28;20465;-68
2022/10/07 04:36:31;;;;;;;6.47;2.25;;;;;;;;;;5028207;28;20276;-68
2022/10/07 04:38:56;;;;;;;8.13;3.20;;;;;;;;;;5029823;28;20022;-68
2022/10/07 04:41:21;;;;;;;11.65;2.45;;;;;;;;;;5026087;28;20034;-68
2022/10/07 04:43:50;;;;;;;9.77;2.83;;;;;;;;;;5027860;28;20051;-68
2022/10/07 04:46:15;;;;;;;10.02;3.00;;;;;;;;;;5027549;28;20276;-68
2022/10/07 04:48:44;;;;;;;8.23;2.70;;;;;;;;;;5028137;28;20474;-68
2022/10/07 04:51:10;;;;;;;8.55;2.50;;;;;;;;;;5026930;28;20351;-68
2022/10/07 04:53:36;;;;;;;6.55;2.55;;;;;;;;;;5040897;28;20021;-68
2022/10/07 04:56:02;;;;;;;9.75;2.45;;;;;;;;;;5031180;28;20037;-68
2022/10/07 04:58:27;;;;;;;7.55;2.55;;;;;;;;;;5030009;28;20022;-68
2022/10/07 05:00:53;;;;;;;11.63;2.47;;;;;;;;;;5032267;28;20509;-67
2022/10/07 05:03:21;;;;;;;9.20;2.38;;;;;;;;;;5033123;28;20021;-68
2022/10/07 05:05:48;;;;;;;17.17;3.85;;;;;;;;;;5030324;28;20021;-68
2022/10/07 05:08:14;;;;;;;7.40;2.58;;;;;;;;;;5033853;28;21716;-67
2022/10/07 05:10:39;;;;;;;8.98;2.60;;;;;;;;;;5025540;28;20025;-68
2022/10/07 05:13:05;;;;;;;10.88;2.80;;;;;;;;;;5028552;28;20036;-68
2022/10/07 05:15:31;;;;;;;15.75;2.67;;;;;;;;;;5032928;28;20081;-68
2022/10/07 05:17:56;;;;;;;10.45;3.00;;;;;;;;;;5030234;28;20068;-68
2022/10/07 05:20:21;;;;;;;12.23;2.63;;;;;;;;;;5032431;28;20029;-68
2022/10/07 05:22:47;;;;;;;11.13;3.40;;;;;;;;;;5032221;28;20263;-67
2022/10/07 05:25:12;;;;;;;17.10;3.25;;;;;;;;;;5032880;28;20142;-68
2022/10/07 05:27:39;;;;;;;15.48;2.60;;;;;;;;;;5032189;28;20112;-67
2022/10/07 05:30:05;;;;;;;14.40;2.85;;;;;;;;;;5030307;28;20117;-68
2022/10/07 05:32:30;;;;;;;9.43;2.80;;;;;;;;;;5032055;28;20024;-67
2022/10/07 05:34:55;;;;;;;7.20;2.50;;;;;;;;;;5028329;28;20032;-68
2022/10/07 05:37:20;;;;;;;9.33;2.93;;;;;;;;;;5033151;28;20653;-68
2022/10/07 05:39:45;;;;;;;8.27;2.72;;;;;;;;;;5031403;28;20279;-68
2022/10/07 05:42:12;;;;;;;10.70;3.27;;;;;;;;;;5032247;28;20025;-68
2022/10/07 05:44:37;;;;;;;17.42;5.40;;;;;;;;;;5030158;28;20270;-68
2022/10/07 05:47:03;;;;;;;11.55;5.03;;;;;;;;;;5030322;28;20088;-67
2022/10/07 05:49:28;;;;;;;10.68;3.85;;;;;;;;;;5031897;28;20022;-68
2022/10/07 05:51:53;;;;;;;8.50;3.40;;;;;;;;;;5031438;28;20028;-68
2022/10/07 05:54:19;;;;;;;9.55;3.42;;;;;;;;;;5028664;28;20426;-67
2022/10/07 05:56:44;;;;;;;16.65;3.85;;;;;;;;;;5030605;28;20390;-68
2022/10/07 05:59:10;;;;;;;12.10;3.55;;;;;;;;;;5031981;28;20025;-68
2022/10/07 06:01:35;;;;;;;33.00;3.67;;;;;;;;;;5031548;28;20044;-67
2022/10/07 06:04:00;;;;;;;10.98;3.38;;;;;;;;;;5028680;28;20115;-68
2022/10/07 06:06:25;;;;;;;14.13;3.00;;;;;;;;;;5028591;28;20033;-68
2022/10/07 06:08:51;;;;;;;8.52;3.15;;;;;;;;;;5031980;28;20283;-68
2022/10/07 06:14:01;;;;;;;9.90;2.60;;;;;;;;;;5025880;28;20099;-68
2022/10/07 06:16:27;;;;;;;11.27;2.83;;;;;;;;;;5027875;28;20485;-68
2022/10/07 06:18:53;;;;;;;13.02;3.35;;;;;;;;;;5023109;28;20025;-68
2022/10/07 06:21:18;;;;;;;19.17;2.78;;;;;;;;;;5026993;28;20030;-68
2022/10/07 06:23:48;;;;;;;19.52;2.97;;;;;;;;;;5030119;28;20029;-68
2022/10/07 06:26:13;;;;;;;12.35;4.28;;;;;;;;;;5031944;28;20071;-68
2022/10/07 06:28:39;;;;;;;12.02;2.97;;;;;;;;;;5030375;28;20056;-66
2022/10/07 06:31:06;;;;;;;12.48;2.95;;;;;;;;;;5029917;28;20478;-68
2022/10/07 06:33:31;;;;;;;15.18;2.95;;;;;;;;;;5030893;28;20125;-68
2022/10/07 06:35:56;;;;;;;9.25;3.30;;;;;;;;;;5030325;28;20108;-68
2022/10/07 06:38:22;;;;;;;15.60;3.50;;;;;;;;;;5030117;28;20029;-68
2022/10/07 06:40:57;;;;;;;8.68;3.22;;;;;;;;;;5024216;28;20264;-67
2022/10/07 06:43:23;;;;;;;16.95;3.42;;;;;;;;;;5024752;28;20505;-67
2022/10/07 06:45:49;;;;;;;15.60;3.20;;;;;;;;;;5023543;28;20728;-68
2022/10/07 06:48:14;;;;;;;9.98;3.58;;;;;;;;;;5022841;28;20100;-68
2022/10/07 06:50:47;;;;;;;11.00;3.23;;;;;;;;;;5029723;28;20032;-67
2022/10/07 06:53:13;;;;;;;18.70;4.07;;;;;;;;;;5034873;28;20276;-68
2022/10/07 06:55:38;;;;;;;15.90;3.03;;;;;;;;;;5031299;28;20024;-68
2022/10/07 06:58:03;;;;;;;13.80;2.92;;;;;;;;;;5024363;28;20775;-68
2022/10/07 07:00:28;;;;;;;14.18;2.85;;;;;;;;;;5024739;28;20271;-69
2022/10/07 07:02:53;;;;;;;10.43;2.63;;;;;;;;;;5025971;28;20337;-68
2022/10/07 07:05:19;;;;;;;12.40;3.17;;;;;;;;;;5031470;28;20385;-68
2022/10/07 07:07:44;;;;;;;11.60;2.63;;;;;;;;;;5036323;28;20278;-67
2022/10/07 07:10:09;;;;;;;15.57;2.53;;;;;;;;;;5031678;28;20045;-68
2022/10/07 07:12:35;;;;;;;20.87;3.40;;;;;;;;;;5029476;28;20068;-68
2022/10/07 07:15:00;;;;;;;10.05;2.33;;;;;;;;;;5030480;28;20288;-69
2022/10/07 07:17:25;;;;;;;15.43;3.25;;;;;;;;;;5027598;28;20462;-69
2022/10/07 07:19:50;;;;;;;15.77;2.92;;;;;;;;;;5029976;28;20497;-69
2022/10/07 07:22:15;;;;;;;14.57;3.00;;;;;;;;;;5029967;28;20075;-68
2022/10/07 07:24:41;;;;;;;12.83;3.13;;;;;;;;;;5030581;28;20064;-69
2022/10/07 07:27:06;;;;;;;17.15;4.03;;;;;;;;;;5030042;28;20033;-67
2022/10/07 07:29:31;;;;;;;7.87;2.70;;;;;;;;;;5030612;28;20025;-69
2022/10/07 07:31:58;;;;;;;8.30;2.97;;;;;;;;;;5030288;28;20482;-69
2022/10/07 07:34:24;;;;;;;12.57;3.03;;;;;;;;;;5027275;28;20493;-69
2022/10/07 07:36:52;;;;;;;14.50;3.87;;;;;;;;;;5029132;28;20021;-67
2022/10/07 07:39:18;;;;;;;8.05;2.42;;;;;;;;;;5025991;28;20279;-68
2022/10/07 07:41:46;;;;;;;9.43;2.85;;;;;;;;;;5028764;28;20104;-68
2022/10/07 07:44:12;;;;;;;14.55;3.55;;;;;;;;;;5032546;28;20109;-68
2022/10/07 07:46:40;;;;;;;13.23;2.50;;;;;;;;;;5032803;28;20418;-68
2022/10/07 07:49:05;;;;;;;11.02;3.17;;;;;;;;;;5026287;28;20033;-68
2022/10/07 07:51:31;;;;;;;7.82;2.35;;;;;;;;;;5031643;28;20074;-67
2022/10/07 07:53:58;;;;;;;7.43;1.90;;;;;;;;;;5033557;28;20025;-68
2022/10/07 07:56:24;;;;;;;14.45;3.25;;;;;;;;;;5020696;28;20017;-68
2022/10/07 07:58:49;;;;;;;10.10;2.88;;;;;;;;;;5027536;28;20075;-67
2022/10/07 08:01:15;;;;;;;10.73;2.53;;;;;;;;;;5026025;28;20402;-68
2022/10/07 08:03:42;;;;;;;16.60;2.92;;;;;;;;;;5029444;28;20367;-67
2022/10/07 08:06:08;;;;;;;16.05;2.20;;;;;;;;;;5025731;28;20117;-68
2022/10/07 08:08:33;;;;;;;16.60;3.15;;;;;;;;;;5030073;28;20024;-66
2022/10/07 08:11:28;;;;;;;3.50;1.87;;;;;;;;;;5024882;28;20434;-69
2022/10/07 08:13:55;;;;;;;12.50;3.00;;;;;;;;;;5018705;28;20311;-68
2022/10/07 08:16:20;;;;;;;5.40;2.30;;;;;;;;;;5025323;28;20022;-69
2022/10/07 08:18:47;;;;;;;9.98;1.95;;;;;;;;;;5028258;28;20123;-68
2022/10/07 08:21:13;;;;;;;13.38;2.67;;;;;;;;;;5026894;28;20444;-69
2022/10/07 08:23:38;;;;;;;14.55;2.83;;;;;;;;;;5028819;28;20028;-69
2022/10/07 08:26:04;;;;;;;11.25;2.88;;;;;;;;;;5023245;28;20405;-70
2022/10/07 08:28:30;;;;;;;8.13;3.13;;;;;;;;;;5025288;28;20018;-70
2022/10/07 08:31:00;;;;;;;8.43;2.47;;;;;;;;;;5027096;28;20048;-70
2022/10/07 08:33:25;;;;;;;11.05;3.03;;;;;;;;;;5026345;28;20017;-70
2022/10/07 08:35:56;;;;;;;21.42;3.30;;;;;;;;;;5030159;28;20022;-68
2022/10/07 08:38:21;;;;;;;9.35;2.70;;;;;;;;;;5028709;28;20075;-70
2022/10/07 08:40:50;;;;;;;9.63;2.73;;;;;;;;;;5036586;28;20017;-71
2022/10/07 08:43:17;;;;;;;11.10;2.65;;;;;;;;;;5028243;28;20021;-67
2022/10/07 08:45:43;;;;;;;15.65;2.25;;;;;;;;;;5027566;28;20060;-68
2022/10/07 08:48:11;;;;;;;8.45;2.72;;;;;;;;;;5028158;28;20057;-70
2022/10/07 08:50:54;;;;;;;16.50;3.58;;;;;;;;;;5028444;28;20351;-70
2022/10/07 08:53:25;;;;;;;7.43;3.60;;;;;;;;;;5025511;28;20020;-69
2022/10/07 08:55:50;;;;;;;12.15;3.40;;;;;;;;;;5027425;28;20025;-68
2022/10/07 08:58:34;;;;;;;11.05;3.38;;;;;;;;;;5027240;28;20030;-68
2022/10/07 09:01:02;;;;;;;16.73;3.00;;;;;;;;;;5028077;28;20033;-68
2022/10/07 09:03:56;;;;;;;16.45;3.97;;;;;;;;;;5025401;28;20017;-68
2022/10/07 09:06:30;;;;;;;13.20;3.38;;;;;;;;;;5017749;28;20513;-67
2022/10/07 09:08:58;;;;;;;16.90;3.60;;;;;;;;;;5026970;28;20049;-68
2022/10/07 09:11:24;;;;;;;11.07;3.55;;;;;;;;;;5044086;23;20046;-64
2022/10/07 09:14:02;;;;;;;12.43;2.38;;;;;;;;;;5028492;28;20537;-64
2022/10/07 09:16:36;;;;;;;7.60;2.30;;;;;;;;;;5023407;28;20064;-64
2022/10/07 09:19:02;;;;;;;17.70;2.70;;;;;;;;;;5020666;28;20474;-64
2022/10/07 09:21:31;;;;;;;16.30;3.25;;;;;;;;;;5020724;28;20024;-64
2022/10/07 09:24:13;;;;;;;18.23;4.15;;;;;;;;;;5025008;28;20021;-64
2022/10/07 09:26:40;;;;;;;15.82;3.38;;;;;;;;;;5026837;28;20021;-64
2022/10/07 09:29:07;;;;;;;12.27;3.45;;;;;;;;;;5028315;28;20034;-64
2022/10/07 09:31:32;;;;;;;11.98;3.03;;;;;;;;;;5024988;28;20021;-64
2022/10/07 09:33:58;;;;;;;10.68;2.67;;;;;;;;;;5027684;28;20040;-64
2022/10/07 09:36:24;;;;;;;19.63;3.60;;;;;;;;;;5023721;28;20026;-65
2022/10/07 09:38:53;;;;;;;12.48;2.80;;;;;;;;;;5027249;28;20155;-64
2022/10/07 09:41:26;;;;;;;10.65;1.92;;;;;;;;;;5031699;28;20036;-64
2022/10/07 09:43:51;;;;;;;12.48;3.08;;;;;;;;;;5030724;28;20104;-64
2022/10/07 09:46:35;;;;;;;13.38;3.13;;;;;;;;;;5030368;28;20096;-64
2022/10/07 09:49:04;;;;;;;22.00;3.53;;;;;;;;;;5031139;28;20037;-64
2022/10/07 09:51:31;;;;;;;8.27;2.38;;;;;;;;;;5030260;28;20056;-64
2022/10/07 09:53:56;;;;;;;13.18;2.70;;;;;;;;;;5029945;28;20036;-64
2022/10/07 09:56:38;;;;;;;14.07;3.55;;;;;;;;;;5031129;28;20021;-65
2022/10/07 09:59:17;;;;;;;8.10;2.58;;;;;;;;;;5015716;28;20104;-64
2022/10/07 10:01:49;;;;;;;25.17;3.35;;;;;;;;;;5026493;28;20444;-64
2022/10/07 10:04:15;;;;;;;17.27;3.70;;;;;;;;;;5030179;28;20028;-64
2022/10/07 10:06:48;;;;;;;8.20;2.65;;;;;;;;;;5033001;28;20441;-64
2022/10/07 10:09:14;;;;;;;18.88;3.83;;;;;;;;;;5025122;28;20032;-64
2022/10/07 10:11:39;;;;;;;12.35;3.33;;;;;;;;;;5027161;28;20080;-64
2022/10/07 10:14:22;;;;;;;19.47;3.80;;;;;;;;;;5032676;28;20033;-64
2022/10/07 10:16:48;;;;;;;11.55;2.90;;;;;;;;;;5030945;28;20916;-64
2022/10/07 10:19:23;;;;;;;16.77;3.70;;;;;;;;;;5025727;28;20107;-64
2022/10/07 10:21:55;;;;;;;13.68;4.15;;;;;;;;;;5030153;28;20017;-64
2022/10/07 10:26:24;;;;;;;16.55;3.08;;;;;;;;;;5030237;28;20096;-64
2022/10/07 10:27:10;;;;;;;19.13;5.55;;;;;;;;;;5029563;28;20030;-64
2022/10/07 10:29:42;;;;;;;18.88;3.95;;;;;;;;;;5028413;28;20219;-64
2022/10/07 10:32:07;;;;;;;48.03;14.05;;;;;;;;;;5025136;28;20017;-64
2022/10/07 10:34:34;;;;;;;10.32;2.45;;;;;;;;;;5028801;28;20462;-64
2022/10/07 10:37:02;;;;;;;17.10;2.97;;;;;;;;;;5028421;28;20033;-65
2022/10/07 10:39:43;;;;;;;16.10;3.72;;;;;;;;;;5030386;28;20384;-64
2022/10/07 10:42:11;;;;;;;17.73;3.22;;;;;;;;;;5029737;28;20017;-64
2022/10/07 10:44:36;;;;;;;18.83;3.00;;;;;;;;;;5031683;28;20021;-64
2022/10/07 10:47:02;;;;;;;11.60;3.40;;;;;;;;;;5025589;28;20032;-64
2022/10/07 10:49:33;;;;;;;16.63;3.08;;;;;;;;;;5029821;28;20470;-64
2022/10/07 10:52:01;;;;;;;18.13;3.78;;;;;;;;;;5025781;28;20318;-64
2022/10/07 10:54:30;;;;;;;14.98;2.80;;;;;;;;;;5027144;28;20018;-65
2022/10/07 10:56:58;;;;;;;13.27;2.13;;;;;;;;;;5028571;28;20072;-65
2022/10/07 10:59:33;;;;;;;8.50;1.95;;;;;;;;;;5028615;28;20025;-65
2022/10/07 11:02:09;;;;;;;14.85;3.47;;;;;;;;;;5029146;28;20025;-65
2022/10/07 11:04:37;;;;;;;13.13;2.50;;;;;;;;;;5031085;28;20067;-65
2022/10/07 11:07:11;;;;;;;15.55;3.17;;;;;;;;;;5028906;28;20045;-64
2022/10/07 11:09:41;;;;;;;7.97;2.28;;;;;;;;;;5031099;28;20018;-65
2022/10/07 11:12:13;;;;;;;15.98;2.58;;;;;;;;;;5029044;28;20026;-64
2022/10/07 11:14:44;;;;;;;8.10;1.75;;;;;;;;;;5028901;28;20052;-64
2022/10/07 11:17:11;;;;;;;8.88;2.92;;;;;;;;;;5029005;28;20075;-64
2022/10/07 11:19:47;;;;;;;8.57;1.67;;;;;;;;;;5029841;28;20024;-64
2022/10/07 11:22:15;;;;;;;18.35;2.97;;;;;;;;;;5029062;28;20041;-64
2022/10/07 11:24:45;;;;;;;15.13;1.95;;;;;;;;;;5030421;28;20048;-65
2022/10/07 11:27:13;;;;;;;13.45;1.98;;;;;;;;;;5027876;28;20280;-65
2022/10/07 11:29:57;;;;;;;19.42;2.15;;;;;;;;;;5026639;28;20653;-64
2022/10/07 11:32:25;;;;;;;15.55;2.15;;;;;;;;;;5028205;28;20451;-64
2022/10/07 11:35:09;;;;;;;6.00;1.92;;;;;;;;;;5029886;28;20022;-64
2022/10/07 11:37:38;;;;;;;22.38;2.95;;;;;;;;;;5025785;28;20021;-65
2022/10/07 11:40:04;;;;;;;19.60;2.33;;;;;;;;;;5026351;28;20021;-65
2022/10/07 11:42:31;;;;;;;6.07;1.00;;;;;;;;;;5024919;28;20021;-64
2022/10/07 11:45:02;;;;;;;18.70;2.75;;;;;;;;;;5026978;28;20025;-65
2022/10/07 11:47:40;;;;;;;14.93;3.53;;;;;;;;;;5024662;28;20029;-65
2022/10/07 11:50:08;;;;;;;9.20;1.80;;;;;;;;;;5028207;28;20104;-65
2022/10/07 11:52:37;;;;;;;3.95;1.23;;;;;;;;;;5028898;28;20021;-64
2022/10/07 11:55:16;;;;;;;10.77;1.52;;;;;;;;;;5026938;28;20064;-64
2022/10/07 11:57:42;;;;;;;12.20;1.90;;;;;;;;;;5027312;28;20110;-65
2022/10/07 12:00:21;;;;;;;8.48;1.58;;;;;;;;;;5028134;28;20108;-66
2022/10/07 12:02:47;;;;;;;14.90;2.08;;;;;;;;;;5028463;28;20014;-64
2022/10/07 12:05:32;;;;;;;15.18;2.47;;;;;;;;;;5030077;28;20028;-66
2022/10/07 12:07:58;;;;;;;10.00;1.60;;;;;;;;;;5029967;28;20153;-64
2022/10/07 12:10:28;;;;;;;15.90;2.50;;;;;;;;;;5026864;28;20021;-64
2022/10/07 12:12:55;;;;;;;20.40;4.05;;;;;;;;;;5028198;28;20052;-64
2022/10/07 12:15:23;;;;;;;11.27;1.60;;;;;;;;;;5028819;28;20025;-64
2022/10/07 12:17:55;;;;;;;4.03;1.17;;;;;;;;;;5027443;28;20025;-64
2022/10/07 12:20:32;;;;;;;10.90;2.30;;;;;;;;;;5028675;28;20028;-64
2022/10/07 12:23:15;;;;;;;7.28;1.50;;;;;;;;;;5028033;28;20029;-64
2022/10/07 12:25:45;;;;;;;11.27;1.92;;;;;;;;;;5024044;28;20136;-65
2022/10/07 12:28:29;;;;;;;15.68;1.58;;;;;;;;;;5027535;28;20052;-65
2022/10/07 12:30:55;;;;;;;17.45;2.13;;;;;;;;;;5028902;28;20025;-65
2022/10/07 12:33:26;;;;;;;8.02;1.90;;;;;;;;;;5025047;28;20140;-65
2022/10/07 12:35:51;;;;;;;21.20;2.08;;;;;;;;;;5028145;28;20056;-65
2022/10/07 12:38:22;;;;;;;15.13;1.85;;;;;;;;;;5027036;28;20056;-65
2022/10/07 12:41:01;;;;;;;13.05;1.80;;;;;;;;;;5028297;28;20009;-64
2022/10/07 12:43:46;;;;;;;12.20;2.10;;;;;;;;;;5028356;28;20028;-65
2022/10/07 12:46:17;;;;;;;7.57;1.85;;;;;;;;;;5025324;28;20033;-64
2022/10/07 12:49:00;;;;;;;20.27;2.83;;;;;;;;;;5028252;28;20462;-65
2022/10/07 12:51:27;;;;;;;17.77;2.67;;;;;;;;;;5023717;28;20026;-64
2022/10/07 12:53:54;;;;;;;15.20;2.70;;;;;;;;;;5027395;28;20026;-64
2022/10/07 12:56:21;;;;;;;13.50;1.60;;;;;;;;;;5026279;28;20024;-64
2022/10/07 13:02:10;;;;;;;14.85;2.72;;;;;;;;;;5002320;28;20028;-65
2022/10/07 13:04:54;;;;;;;14.52;1.90;;;;;;;;;;5002040;28;20042;-65
2022/10/07 13:07:51;;;;;;;13.73;1.77;;;;;;;;;;5025612;28;20035;-64
2022/10/07 13:10:22;;;;;;;7.95;1.30;;;;;;;;;;4994937;28;20034;-65
2022/10/07 13:12:53;;;;;;;7.50;1.45;;;;;;;;;;5026987;28;20654;-66
2022/10/07 13:15:40;;;;;;;8.70;1.52;;;;;;;;;;5029215;28;20401;-65
2022/10/07 13:18:24;;;;;;;10.32;2.25;;;;;;;;;;5030353;28;20017;-64
2022/10/07 13:21:09;;;;;;;18.70;2.15;;;;;;;;;;5032937;28;20017;-65
2022/10/07 13:23:35;;;;;;;9.60;1.65;;;;;;;;;;5024526;28;20005;-66
2022/10/07 13:26:02;;;;;;;19.48;2.58;;;;;;;;;;5031440;28;20051;-64
2022/10/07 13:28:35;;;;;;;10.00;1.65;;;;;;;;;;5031266;28;20507;-66
2022/10/07 13:31:15;;;;;;;9.00;2.33;;;;;;;;;;5032508;28;20017;-65
2022/10/07 13:33:41;;;;;;;9.88;1.85;;;;;;;;;;5032385;28;20029;-65
2022/10/07 13:36:11;;;;;;;12.98;1.65;;;;;;;;;;5031387;28;20018;-65
2022/10/07 13:38:37;;;;;;;13.68;1.75;;;;;;;;;;5028274;28;20021;-64
2022/10/07 13:41:07;;;;;;;16.20;1.80;;;;;;;;;;5029055;28;20060;-65
2022/10/07 13:43:33;;;;;;;19.13;2.20;;;;;;;;;;5027364;28;20268;-65
2022/10/07 13:45:59;;;;;;;14.30;2.40;;;;;;;;;;5030952;28;20029;-65
2022/10/07 13:48:26;;;;;;;14.70;1.92;;;;;;;;;;5031819;28;20025;-65
2022/10/07 13:50:53;;;;;;;13.10;1.50;;;;;;;;;;5028990;28;20021;-64
2022/10/07 13:53:29;;;;;;;13.60;2.55;;;;;;;;;;5029441;28;20040;-64
2022/10/07 13:56:14;;;;;;;10.27;1.65;;;;;;;;;;5031770;28;20037;-64
2022/10/07 13:58:39;;;;;;;13.68;1.65;;;;;;;;;;5023277;28;20026;-65
2022/10/07 14:01:05;;;;;;;9.15;1.00;;;;;;;;;;5030584;28;20031;-65
2022/10/07 14:03:30;;;;;;;15.00;2.00;;;;;;;;;;5030310;28;20105;-66
2022/10/07 14:05:55;;;;;;;17.80;2.10;;;;;;;;;;5031024;28;20083;-65
2022/10/07 14:08:22;;;;;;;18.77;1.93;;;;;;;;;;5025098;28;20044;-66
2022/10/07 14:11:02;;;;;;;10.13;2.03;;;;;;;;;;5030098;28;20535;-65
2022/10/07 14:13:28;;;;;;;12.38;2.22;;;;;;;;;;5029824;28;20014;-65
2022/10/07 14:15:55;;;;;;;13.57;1.50;;;;;;;;;;5032570;28;20089;-65
2022/10/07 14:18:20;;;;;;;17.42;1.60;;;;;;;;;;5031403;28;20355;-65
2022/10/07 14:20:46;;;;;;;8.98;1.92;;;;;;;;;;5032580;28;20013;-65
2022/10/07 14:23:24;;;;;;;12.18;2.03;;;;;;;;;;5025232;28;20025;-65
2022/10/07 14:25:52;;;;;;;14.80;3.80;;;;;;;;;;5045364;28;20021;-65
2022/10/07 14:28:23;;;;;;;6.90;1.98;;;;;;;;;;5030047;28;20024;-65
2022/10/07 14:36:36;;;;;;;14.02;1.50;;;;;;;;;;5031946;28;20163;-65
2022/10/07 14:39:30;;;;;;;17.23;1.70;;;;;;;;;;5032464;28;20104;-65
2022/10/07 14:41:55;;;;;;;10.75;2.15;;;;;;;;;;5028903;28;20264;-65
2022/10/07 14:44:21;;;;;;;11.43;1.53;;;;;;;;;;5031840;28;20032;-65
2022/10/07 14:46:46;;;;;;;16.88;2.38;;;;;;;;;;5030490;28;20014;-65
2022/10/07 14:49:12;;;;;;;13.30;2.20;;;;;;;;;;5029821;28;20032;-66
2022/10/07 14:51:37;;;;;;;9.50;2.53;;;;;;;;;;5031447;28;20425;-65
2022/10/07 14:54:04;;;;;;;9.57;1.30;;;;;;;;;;5030648;28;20029;-65
2022/10/07 14:56:30;;;;;;;13.93;1.90;;;;;;;;;;5031255;28;20013;-65